Terminal Aerodrome Forecast
Issued by NWS Louisville, KY

Current Version | Previous Version | Text Only | Print | Product List | Glossary On
Versions: 1 2 3 4 5 6 7 8 9 10 11 12 13 14 15 16 17 18 19 20 21 22 23 24 25
000
FTUS43 KLMK 051000 AAB
TAFBWG
TAF AMD
KBWG 051020Z 0510/0606 00000KT 5SM BR VCSH SCT009 BKN022
      TEMPO 0510/0514 BKN008
     FM051400 VRB04KT P6SM BKN025
     FM051700 08004KT P6SM SCT040 BKN200=

USA.gov is the U.S. government's official web portal to all federal, state and local government web resources and services.